Terminal Aerodrome Forecast
Issued by NWS Twin Cities, MN

Home | Current Version | Previous Version | Text Only | Print | Product List | Glossary Off
Versions: 1 2 3 4 5 6 7 8 9 10 11 12 13 14 15 16 17 18 19

000
FTUS43 KMPX 230542
TAFSTC
TAF
KSTC 230542Z 2306/2406 21014KT P6SM OVC100
     FM231300 23011KT P6SM VCSH OVC050
      TEMPO 2314/2316 6SM -FZRAPL
     FM231800 27009KT P6SM SCT030 OVC050
     FM232100 30008KT P6SM OVC020=

USA.gov is the U.S. government's official web portal to all federal, state and local government web resources and services.